Time;durP1;ratioP1;P1;durP2;ratioP2;P2;SDS_P1;SDS_P2;PMS_P1;PMS_P2;Temp;Humidity;BMP_temperature;BMP_pressure;BME280_temperature;BME280_humidity;BME280_pressure;Samples;Min_cycle;Max_cycle;Signal;HPM_P1;HPM_P2
2023/10/16 00:02:59;;;;;;;1.55;1.45;;;2.50;99.90;;;;;;6196196;28;20053;-75
2023/10/16 00:06:06;;;;;;;4.10;1.88;;;2.50;99.90;;;;;;6196299;28;20542;-75
2023/10/16 00:09:14;;;;;;;2.15;1.60;;;2.40;99.90;;;;;;6195918;28;20042;-74
2023/10/16 00:12:19;;;;;;;2.85;1.38;;;2.40;99.90;;;;;;6196831;28;20154;-75
2023/10/16 00:15:20;;;;;;;1.60;1.50;;;2.40;99.90;;;;;;6196299;28;20553;-75
2023/10/16 00:18:24;;;;;;;1.23;1.13;;;2.30;99.90;;;;;;6195860;28;20061;-74
2023/10/16 00:21:26;;;;;;;2.92;2.40;;;2.30;99.90;;;;;;6195971;28;20426;-74
2023/10/16 00:24:32;;;;;;;5.22;2.35;;;2.30;99.90;;;;;;6196316;28;20051;-75
2023/10/16 00:27:34;;;;;;;2.15;1.95;;;2.30;99.90;;;;;;6196402;28;20092;-74
2023/10/16 00:30:37;;;;;;;1.80;1.70;;;2.20;99.90;;;;;;6195911;28;20042;-74
2023/10/16 00:33:40;;;;;;;1.38;1.08;;;2.20;99.90;;;;;;6195863;28;20042;-75
2023/10/16 00:36:42;;;;;;;1.90;1.70;;;2.20;99.90;;;;;;6195571;28;20514;-74
2023/10/16 00:39:45;;;;;;;3.00;2.38;;;2.20;99.90;;;;;;6196589;28;20046;-74
2023/10/16 00:42:48;;;;;;;2.13;1.70;;;2.20;99.90;;;;;;6195780;28;20055;-74
2023/10/16 00:45:53;;;;;;;2.45;2.15;;;2.20;99.90;;;;;;6201957;28;20061;-75
2023/10/16 00:48:56;;;;;;;1.95;1.77;;;2.10;99.90;;;;;;6201932;28;20066;-75
2023/10/16 00:51:57;;;;;;;2.25;2.05;;;2.10;99.90;;;;;;6196377;28;20054;-75
2023/10/16 00:55:00;;;;;;;1.50;1.40;;;2.10;99.90;;;;;;6195510;28;20046;-75
2023/10/16 00:58:06;;;;;;;2.83;2.05;;;2.10;99.90;;;;;;6195687;28;20488;-75
2023/10/16 01:01:09;;;;;;;2.85;1.88;;;2.10;99.90;;;;;;6195666;28;20097;-75
2023/10/16 01:04:11;;;;;;;4.63;2.95;;;2.10;99.90;;;;;;6196206;28;20100;-75
2023/10/16 01:07:15;;;;;;;2.85;2.35;;;2.10;99.90;;;;;;6194993;28;20054;-74
2023/10/16 01:10:20;;;;;;;5.60;1.85;;;2.10;99.90;;;;;;6196837;28;20419;-75
2023/10/16 01:13:22;;;;;;;3.45;1.90;;;2.10;99.90;;;;;;6200154;28;20049;-75
2023/10/16 01:16:23;;;;;;;2.35;1.88;;;2.10;99.90;;;;;;6200124;28;20046;-75
2023/10/16 01:19:28;;;;;;;2.83;2.10;;;2.10;99.90;;;;;;6199801;28;20053;-75
2023/10/16 01:22:34;;;;;;;1.52;1.40;;;2.10;99.90;;;;;;6199614;28;20046;-74
2023/10/16 01:25:37;;;;;;;2.15;1.73;;;2.10;99.90;;;;;;6199756;28;20173;-74
2023/10/16 01:28:39;;;;;;;2.92;1.52;;;2.00;99.90;;;;;;6208255;28;20046;-74
2023/10/16 01:31:44;;;;;;;2.03;1.47;;;2.00;99.90;;;;;;6200139;28;20050;-74
2023/10/16 01:34:46;;;;;;;2.45;1.80;;;2.00;99.90;;;;;;6199243;28;20046;-74
2023/10/16 01:37:49;;;;;;;1.88;1.75;;;1.90;99.90;;;;;;6199339;28;20054;-74
2023/10/16 01:41:09;;;;;;;3.92;2.08;;;1.90;99.90;;;;;;6199217;28;20043;-74
2023/10/16 01:44:12;;;;;;;3.55;2.00;;;1.90;99.90;;;;;;6199801;28;20058;-74
2023/10/16 01:47:16;;;;;;;5.50;2.63;;;1.90;99.90;;;;;;6199014;28;20042;-74
2023/10/16 01:50:21;;;;;;;2.22;2.03;;;1.90;99.90;;;;;;6199212;28;20049;-74
2023/10/16 01:53:25;;;;;;;5.35;2.08;;;1.90;99.90;;;;;;6199050;28;20046;-75
2023/10/16 01:56:28;;;;;;;2.90;2.43;;;1.90;99.90;;;;;;6199315;28;20571;-74
2023/10/16 01:59:30;;;;;;;1.75;1.63;;;1.80;99.90;;;;;;6199035;28;20042;-74
2023/10/16 02:02:32;;;;;;;2.80;1.80;;;1.80;99.90;;;;;;6198385;28;20495;-74
2023/10/16 02:05:33;;;;;;;3.97;2.30;;;1.80;99.90;;;;;;6198740;28;20522;-74
2023/10/16 02:08:36;;;;;;;2.00;1.80;;;1.80;99.90;;;;;;6198532;28;20065;-74
2023/10/16 02:11:40;;;;;;;3.20;2.10;;;1.80;99.90;;;;;;6199237;28;20053;-75
2023/10/16 02:14:42;;;;;;;2.43;1.90;;;1.70;99.90;;;;;;6198539;28;20460;-75
2023/10/16 02:17:49;;;;;;;2.47;1.87;;;1.70;99.90;;;;;;6198460;28;20069;-74
2023/10/16 02:20:51;;;;;;;4.03;2.77;;;1.60;99.90;;;;;;6197977;28;20043;-75
2023/10/16 02:23:54;;;;;;;2.10;1.87;;;1.50;99.90;;;;;;6215119;28;20507;-74
2023/10/16 02:26:57;;;;;;;2.70;2.33;;;1.40;99.90;;;;;;6222173;28;20046;-75
2023/10/16 02:30:14;;;;;;;2.43;2.23;;;1.50;99.90;;;;;;6222475;28;20550;-74
2023/10/16 02:33:22;;;;;;;1.47;1.37;;;1.50;99.90;;;;;;6222243;28;20055;-74
2023/10/16 02:36:23;;;;;;;;;;;1.50;99.90;;;;;;6222979;28;20049;-75
2023/10/16 02:39:37;;;;;;;2.80;1.50;;;1.50;99.90;;;;;;6221954;28;19928;-74
2023/10/16 02:42:40;;;;;;;1.97;1.77;;;1.50;99.90;;;;;;6222355;28;20037;-75
2023/10/16 02:45:46;;;;;;;1.90;1.67;;;1.50;99.90;;;;;;6221966;28;20082;-75
2023/10/16 02:48:48;;;;;;;4.80;2.45;;;1.50;99.90;;;;;;6220588;28;20052;-75
2023/10/16 02:51:52;;;;;;;4.17;2.50;;;1.50;99.90;;;;;;6230363;28;20049;-75
2023/10/16 02:54:56;;;;;;;6.50;2.40;;;1.50;99.90;;;;;;6197739;28;20057;-75
2023/10/16 02:58:04;;;;;;;2.13;1.95;;;1.50;99.90;;;;;;6197174;28;20043;-75
2023/10/16 03:01:13;;;;;;;3.30;3.00;;;1.50;99.90;;;;;;6197575;28;20065;-75
2023/10/16 03:04:16;;;;;;;2.60;2.10;;;1.50;99.90;;;;;;6197663;28;20435;-75
2023/10/16 03:07:20;;;;;;;2.27;1.87;;;1.40;99.90;;;;;;6196995;28;20418;-75
2023/10/16 03:10:23;;;;;;;2.93;2.00;;;1.40;99.90;;;;;;6197185;28;20552;-75
2023/10/16 03:13:26;;;;;;;3.40;1.60;;;1.40;99.90;;;;;;6196659;28;20057;-75
2023/10/16 03:16:29;;;;;;;3.83;2.03;;;1.40;99.90;;;;;;6196945;28;20491;-75
2023/10/16 03:19:31;;;;;;;5.27;2.43;;;1.40;99.90;;;;;;6197628;28;20657;-74
2023/10/16 03:22:33;;;;;;;2.50;2.03;;;1.40;99.90;;;;;;6199556;28;20475;-75
2023/10/16 03:28:52;;;;;;;2.37;2.17;;;1.40;99.90;;;;;;6196248;28;20038;-75
2023/10/16 03:31:53;;;;;;;2.17;1.57;;;1.40;99.90;;;;;;6197860;28;20104;-75
2023/10/16 03:34:57;;;;;;;3.73;1.20;;;1.40;99.90;;;;;;6196089;28;20053;-74
2023/10/16 03:38:01;;;;;;;6.70;2.37;;;1.40;99.90;;;;;;6196397;28;20133;-74
2023/10/16 03:41:11;;;;;;;4.57;2.40;;;1.40;99.90;;;;;;6196708;28;20504;-74
2023/10/16 03:44:17;;;;;;;3.40;1.93;;;1.40;99.90;;;;;;6196791;28;20462;-74
2023/10/16 03:47:19;;;;;;;6.27;2.27;;;1.30;99.90;;;;;;6196281;28;20061;-74
2023/10/16 03:50:24;;;;;;;2.67;2.30;;;1.20;99.90;;;;;;6196192;28;20057;-74
2023/10/16 03:53:26;;;;;;;3.03;1.90;;;1.20;99.90;;;;;;6196449;28;20124;-74
2023/10/16 03:56:30;;;;;;;2.63;1.90;;;1.20;99.90;;;;;;6196176;28;20046;-75
2023/10/16 03:59:33;;;;;;;2.47;1.70;;;1.20;99.90;;;;;;6196665;28;20435;-75
2023/10/16 04:02:35;;;;;;;3.40;2.47;;;1.20;99.90;;;;;;6196387;28;20056;-75
2023/10/16 04:05:45;;;;;;;2.87;1.50;;;1.10;99.90;;;;;;6195929;28;20396;-74
2023/10/16 04:08:47;;;;;;;2.43;2.03;;;1.10;99.90;;;;;;6196071;28;20061;-74
2023/10/16 04:11:54;;;;;;;2.30;2.10;;;1.10;99.90;;;;;;6196931;28;20046;-75
2023/10/16 04:15:04;;;;;;;3.03;2.33;;;1.10;99.90;;;;;;6196011;28;20049;-75
2023/10/16 04:18:04;;;;;;;1.67;1.57;;;1.10;99.90;;;;;;6195953;28;20053;-75
2023/10/16 04:21:37;;;;;;;2.57;2.37;;;1.10;99.90;;;;;;6195863;28;20360;-74
2023/10/16 04:24:47;;;;;;;2.20;2.00;;;1.10;99.90;;;;;;6196238;28;20054;-75
2023/10/16 04:27:59;;;;;;;3.27;2.50;;;1.10;99.90;;;;;;6196292;28;20424;-75
2023/10/16 04:31:30;;;;;;;5.83;2.27;;;1.10;99.90;;;;;;6196087;28;20050;-75
2023/10/16 04:34:31;;;;;;;1.97;1.87;;;1.10;99.90;;;;;;6195298;28;20452;-75
2023/10/16 04:37:36;;;;;;;2.37;2.17;;;1.10;99.90;;;;;;6195498;28;20062;-75
2023/10/16 04:47:19;;;;;;;3.73;2.37;;;1.20;99.90;;;;;;6226356;28;20052;-75
2023/10/16 04:50:29;;;;;;;2.33;2.13;;;1.20;99.90;;;;;;6224820;28;20053;-74
2023/10/16 04:53:39;;;;;;;3.93;2.43;;;1.20;99.90;;;;;;6224420;28;20499;-74
2023/10/16 04:57:07;;;;;;;4.50;2.63;;;1.20;99.90;;;;;;6224127;28;20184;-74
2023/10/16 05:00:28;;;;;;;4.00;3.00;;;1.20;99.90;;;;;;6224871;28;20522;-74
2023/10/16 05:03:35;;;;;;;2.40;1.93;;;1.20;99.90;;;;;;6224440;28;20049;-74
2023/10/16 05:06:49;;;;;;;7.43;1.90;;;1.30;99.90;;;;;;6224134;28;20042;-74
2023/10/16 05:13:24;;;;;;;3.00;2.03;;;1.30;99.90;;;;;;6224241;28;20037;-74
2023/10/16 05:16:30;;;;;;;4.43;2.27;;;1.40;99.90;;;;;;6205797;28;20050;-74
2023/10/16 05:19:44;;;;;;;3.53;2.73;;;1.40;99.90;;;;;;6200052;28;20042;-74
2023/10/16 06:16:17;;;;;;;4.38;2.58;;;2.50;99.90;;;;;;6220183;28;20084;-73
2023/10/16 06:19:19;;;;;;;3.22;2.90;;;2.60;99.90;;;;;;6247917;28;20049;-73
2023/10/16 06:22:21;;;;;;;3.33;3.03;;;2.60;99.90;;;;;;6257013;28;20045;-73
2023/10/16 06:25:28;;;;;;;5.38;3.30;;;2.70;99.90;;;;;;6272184;28;20052;-73
2023/10/16 06:28:30;;;;;;;3.22;3.00;;;2.80;99.90;;;;;;6271718;28;20140;-73
2023/10/16 06:31:49;;;;;;;5.30;3.85;;;2.90;99.90;;;;;;6270396;28;20041;-73
2023/10/16 06:34:57;;;;;;;5.72;4.18;;;2.90;99.90;;;;;;6244859;28;20045;-73
2023/10/16 06:38:00;;;;;;;6.20;3.95;;;3.00;99.90;;;;;;6248689;28;20041;-72
2023/10/16 06:41:04;;;;;;;3.30;3.05;;;3.10;99.90;;;;;;6270914;28;20505;-72
2023/10/16 06:44:07;;;;;;;7.40;4.40;;;3.20;99.90;;;;;;6271973;28;20498;-73
2023/10/16 06:47:12;;;;;;;3.75;3.10;;;3.30;99.90;;;;;;6271073;28;20052;-73
2023/10/16 06:53:30;;;;;;;4.85;4.00;;;3.70;99.90;;;;;;6270630;28;20089;-73
2023/10/16 06:56:35;;;;;;;6.22;4.20;;;3.90;99.90;;;;;;6270707;28;20414;-73
2023/10/16 06:59:36;;;;;;;38.20;15.40;;;4.00;99.90;;;;;;6271140;28;20048;-73
2023/10/16 07:02:38;;;;;;;42.95;29.25;;;4.10;99.90;;;;;;6249947;28;20041;-73
2023/10/16 07:05:43;;;;;;;43.33;27.00;;;4.30;99.90;;;;;;6245815;28;20089;-73
2023/10/16 07:08:45;;;;;;;94.00;53.50;;;4.40;99.90;;;;;;6244718;28;20128;-73
2023/10/16 07:11:48;;;;;;;154.18;95.13;;;4.70;99.90;;;;;;6246526;28;20222;-73
2023/10/16 07:14:56;;;;;;;45.78;40.72;;;4.90;99.90;;;;;;6245844;28;20056;-73
2023/10/16 07:18:02;;;;;;;15.40;10.65;;;5.20;99.90;;;;;;6245609;28;20446;-73
2023/10/16 07:21:17;;;;;;;8.13;7.30;;;5.50;99.90;;;;;;6245829;28;20172;-73
2023/10/16 07:24:21;;;;;;;6.78;4.97;;;5.70;99.90;;;;;;6239072;28;20053;-73
2023/10/16 07:27:24;;;;;;;9.30;4.47;;;6.00;99.90;;;;;;6246051;28;20045;-73
2023/10/16 07:30:27;;;;;;;5.00;4.50;;;6.20;99.90;;;;;;6245909;28;20049;-73
2023/10/16 07:33:30;;;;;;;8.43;5.25;;;6.50;99.90;;;;;;6245450;28;20069;-73
2023/10/16 07:36:32;;;;;;;5.00;4.30;;;6.70;99.90;;;;;;6245141;28;20046;-73
2023/10/16 07:39:33;;;;;;;5.05;4.07;;;7.00;99.90;;;;;;6245789;28;20068;-74
2023/10/16 07:42:36;;;;;;;9.30;3.90;;;7.40;99.90;;;;;;6245357;28;20072;-74
2023/10/16 07:45:43;;;;;;;7.63;4.13;;;7.80;99.90;;;;;;6245143;28;20048;-73
2023/10/16 07:48:46;;;;;;;8.90;4.15;;;8.10;99.90;;;;;;6250380;28;20072;-75
2023/10/16 07:51:52;;;;;;;5.40;3.58;;;8.50;99.90;;;;;;6243335;28;20065;-74
2023/10/16 07:54:54;;;;;;;5.05;3.50;;;9.00;99.90;;;;;;6253225;28;20076;-73
2023/10/16 07:57:57;;;;;;;4.53;3.47;;;9.40;99.90;;;;;;6248022;28;20195;-74
2023/10/16 08:01:17;;;;;;;5.85;3.45;;;9.90;99.90;;;;;;6268515;28;20053;-77
2023/10/16 08:04:30;;;;;;;3.28;2.97;;;10.10;99.90;;;;;;6270701;28;20052;-74
2023/10/16 08:07:46;;;;;;;6.63;4.07;;;10.30;99.90;;;;;;6270108;28;20061;-75
2023/10/16 08:10:47;;;;;;;12.23;6.57;;;10.50;99.90;;;;;;6259129;28;20753;-74
2023/10/16 08:13:52;;;;;;;16.42;15.00;;;10.60;99.90;;;;;;6247453;28;20045;-74
2023/10/16 08:16:58;;;;;;;8.13;6.78;;;10.60;99.90;;;;;;6268925;28;20083;-74
2023/10/16 08:19:59;;;;;;;7.03;5.15;;;10.60;99.90;;;;;;6254018;28;20163;-74
2023/10/16 08:23:05;;;;;;;7.68;4.72;;;10.70;99.90;;;;;;6249950;28;20502;-74
2023/10/16 08:26:27;;;;;;;6.70;4.85;;;10.90;99.90;;;;;;6250130;28;20051;-74
2023/10/16 08:29:34;;;;;;;7.30;5.13;;;11.10;99.90;;;;;;6250437;28;20052;-74
2023/10/16 08:32:53;;;;;;;5.10;4.15;;;11.30;99.90;;;;;;6250258;28;20191;-74
2023/10/16 08:35:58;;;;;;;12.48;4.57;;;11.30;99.90;;;;;;6258398;28;20049;-74
2023/10/16 08:39:08;;;;;;;6.97;3.80;;;11.40;99.90;;;;;;6249479;28;20041;-73
2023/10/16 08:42:18;;;;;;;4.70;3.85;;;11.60;99.90;;;;;;6249100;28;20056;-73
2023/10/16 08:45:24;;;;;;;3.90;3.58;;;11.60;99.90;;;;;;6249627;28;20127;-74
2023/10/16 08:48:29;;;;;;;6.15;4.38;;;11.70;99.90;;;;;;6248404;28;20502;-73
2023/10/16 08:51:31;;;;;;;4.60;3.97;;;11.90;99.90;;;;;;6249774;28;20167;-73
2023/10/16 08:55:00;;;;;;;4.25;3.50;;;12.30;99.90;;;;;;6249447;28;20060;-73
2023/10/16 08:58:04;;;;;;;;;;;12.40;99.90;;;;;;6249621;28;20139;-73
2023/10/16 09:01:08;;;;;;;5.10;3.20;;;12.60;99.90;;;;;;6249346;28;19925;-74
2023/10/16 09:04:14;;;;;;;6.55;5.05;;;12.90;99.90;;;;;;6246198;28;20057;-73
2023/10/16 09:07:18;;;;;;;5.78;3.85;;;13.00;99.90;;;;;;6251039;28;20051;-73
2023/10/16 09:10:21;;;;;;;5.53;4.88;;;13.00;99.20;;;;;;6258293;28;20083;-73
2023/10/16 09:13:26;;;;;;;5.65;3.90;;;12.90;98.50;;;;;;6273742;28;20053;-73
2023/10/16 09:16:34;;;;;;;4.10;3.60;;;12.90;98.10;;;;;;6270039;28;20057;-73
2023/10/16 09:19:46;;;;;;;4.53;3.67;;;13.00;97.20;;;;;;6266059;28;20070;-73
2023/10/16 09:22:48;;;;;;;5.85;3.38;;;13.10;96.90;;;;;;6248975;28;20056;-73
2023/10/16 09:25:55;;;;;;;4.63;3.30;;;13.40;96.60;;;;;;6248677;28;20690;-73
2023/10/16 09:29:04;;;;;;;4.82;3.60;;;13.80;96.00;;;;;;6250378;28;20042;-73
2023/10/16 09:32:07;;;;;;;4.45;3.35;;;14.00;94.50;;;;;;6246182;28;20046;-73
2023/10/16 09:35:12;;;;;;;8.45;3.70;;;14.00;93.90;;;;;;6247778;28;20060;-73
2023/10/16 09:38:23;;;;;;;3.95;3.00;;;14.20;93.60;;;;;;6248018;28;20062;-73
2023/10/16 09:41:41;;;;;;;3.67;2.88;;;14.20;92.90;;;;;;6248534;28;20061;-73
2023/10/16 09:44:56;;;;;;;6.03;3.23;;;14.20;92.70;;;;;;6249842;28;20099;-73
2023/10/16 09:48:07;;;;;;;8.80;3.53;;;14.30;92.60;;;;;;6269140;28;20060;-73
2023/10/16 09:51:12;;;;;;;3.42;2.60;;;14.80;92.40;;;;;;6251817;28;20585;-72
2023/10/16 09:54:14;;;;;;;2.72;2.40;;;15.30;92.00;;;;;;6248358;28;20049;-73
2023/10/16 09:57:19;;;;;;;5.63;3.33;;;15.40;90.40;;;;;;6247829;28;20068;-72
2023/10/16 10:00:31;;;;;;;3.97;2.70;;;15.30;90.10;;;;;;6248738;28;20049;-73
2023/10/16 10:03:36;;;;;;;5.68;3.30;;;15.40;90.20;;;;;;6247474;28;20517;-72
2023/10/16 10:06:40;;;;;;;2.97;2.47;;;15.90;90.00;;;;;;6247986;28;20175;-73
2023/10/16 10:09:45;;;;;;;2.85;2.53;;;16.30;88.30;;;;;;6247928;28;20044;-73
2023/10/16 10:12:48;;;;;;;2.85;2.53;;;16.20;85.50;;;;;;6248302;28;20071;-73
2023/10/16 10:15:52;;;;;;;4.63;2.83;;;16.00;85.90;;;;;;6248310;28;20191;-72
2023/10/16 10:19:01;;;;;;;2.22;2.03;;;16.10;85.60;;;;;;6247564;28;20054;-73
2023/10/16 10:22:15;;;;;;;3.80;3.50;;;16.30;84.40;;;;;;6247505;28;20065;-72
2023/10/16 10:25:26;;;;;;;2.53;2.30;;;16.40;84.30;;;;;;6255611;28;20052;-73
2023/10/16 10:28:32;;;;;;;3.95;3.60;;;16.50;81.80;;;;;;6240461;28;20060;-73
2023/10/16 10:31:34;;;;;;;2.33;2.13;;;16.10;81.70;;;;;;6248199;28;20081;-72
2023/10/16 10:34:38;;;;;;;2.70;2.22;;;16.10;82.30;;;;;;6247300;28;20108;-72
2023/10/16 10:37:44;;;;;;;5.13;2.20;;;15.80;80.30;;;;;;6247352;28;20041;-72
2023/10/16 10:41:15;;;;;;;2.28;1.42;;;15.70;81.50;;;;;;6258656;28;20052;-72
2023/10/16 10:44:18;;;;;;;4.25;2.22;;;16.10;81.50;;;;;;6246959;28;20049;-72
2023/10/16 10:47:23;;;;;;;3.55;2.55;;;16.20;80.50;;;;;;6246780;28;20580;-72
2023/10/16 10:50:27;;;;;;;3.00;2.28;;;16.00;79.30;;;;;;6239218;28;20054;-72
2023/10/16 10:53:29;;;;;;;2.72;2.17;;;15.80;79.40;;;;;;6246862;28;20063;-72
2023/10/16 10:56:41;;;;;;;5.20;2.30;;;15.70;79.20;;;;;;6246598;28;20055;-72
2023/10/16 10:59:47;;;;;;;2.83;1.83;;;15.60;78.70;;;;;;6247058;28;20406;-72
2023/10/16 11:03:05;;;;;;;4.65;2.35;;;15.60;79.00;;;;;;6247013;28;20132;-72
2023/10/16 11:06:16;;;;;;;2.13;2.00;;;15.60;78.00;;;;;;6246603;28;20060;-72
2023/10/16 11:09:20;;;;;;;2.45;1.88;;;15.50;78.00;;;;;;6246455;28;20068;-73
2023/10/16 11:12:24;;;;;;;2.20;1.60;;;15.50;77.50;;;;;;6247156;28;20100;-72
2023/10/16 11:15:26;;;;;;;1.75;1.52;;;15.50;76.70;;;;;;6246201;28;20426;-72
2023/10/16 11:18:28;;;;;;;2.53;1.95;;;15.50;76.70;;;;;;6246036;28;20053;-72
2023/10/16 11:21:31;;;;;;;1.70;1.52;;;15.30;76.10;;;;;;6247686;28;20038;-72
2023/10/16 11:24:36;;;;;;;5.32;2.13;;;15.40;77.60;;;;;;6246427;28;20053;-72
2023/10/16 11:27:41;;;;;;;2.15;2.00;;;15.80;76.50;;;;;;6255237;28;20056;-73
2023/10/16 11:30:47;;;;;;;2.55;1.98;;;15.80;76.20;;;;;;6265782;28;20063;-74
2023/10/16 11:34:01;;;;;;;1.85;1.55;;;15.80;75.60;;;;;;6271362;28;20098;-72
2023/10/16 11:37:07;;;;;;;2.47;1.45;;;15.90;75.30;;;;;;6248985;28;20056;-73
2023/10/16 11:40:18;;;;;;;3.10;1.60;;;15.90;76.00;;;;;;6251129;28;20514;-74
2023/10/16 11:43:19;;;;;;;1.52;1.42;;;16.20;75.00;;;;;;6254188;28;20533;-73
2023/10/16 11:46:29;;;;;;;1.40;1.30;;;16.10;74.10;;;;;;6261826;28;20103;-72
2023/10/16 11:49:32;;;;;;;2.47;1.45;;;15.90;73.20;;;;;;6233380;28;20045;-74
2023/10/16 11:52:37;;;;;;;3.58;1.52;;;15.70;73.40;;;;;;6245986;28;20128;-73
2023/10/16 11:55:38;;;;;;;2.28;1.38;;;15.70;73.10;;;;;;6245637;28;20049;-72
2023/10/16 11:58:41;;;;;;;1.55;1.20;;;15.90;73.60;;;;;;6247804;28;20045;-73
2023/10/16 12:01:44;;;;;;;1.70;1.27;;;16.30;73.50;;;;;;6270303;28;20143;-73
2023/10/16 12:04:47;;;;;;;4.10;1.70;;;16.60;71.70;;;;;;6254086;28;20164;-73
2023/10/16 12:07:52;;;;;;;1.70;1.00;;;16.40;70.90;;;;;;6255127;28;20131;-73
2023/10/16 12:10:54;;;;;;;0.77;0.77;;;16.20;70.40;;;;;;6257333;28;20056;-73
2023/10/16 12:13:55;;;;;;;1.33;1.10;;;16.10;70.70;;;;;;6245234;28;20138;-73
2023/10/16 12:16:57;;;;;;;1.98;1.48;;;16.30;70.60;;;;;;6245386;28;20034;-73
2023/10/16 12:19:59;;;;;;;0.90;0.85;;;16.40;69.90;;;;;;6245600;28;20052;-73
2023/10/16 12:23:04;;;;;;;2.45;0.82;;;16.50;68.60;;;;;;6244451;28;20049;-75
2023/10/16 12:26:07;;;;;;;4.90;0.98;;;16.40;68.20;;;;;;6245064;28;20041;-73
2023/10/16 12:29:10;;;;;;;0.90;0.90;;;16.50;68.50;;;;;;6244559;28;20052;-74
2023/10/16 12:32:12;;;;;;;2.65;1.10;;;16.60;67.60;;;;;;6245560;28;20038;-73
2023/10/16 12:35:18;;;;;;;1.13;1.02;;;16.60;67.30;;;;;;6259144;28;20518;-73
2023/10/16 12:38:23;;;;;;;1.20;1.08;;;16.50;67.70;;;;;;6261989;28;20056;-73
2023/10/16 12:41:25;;;;;;;1.33;1.00;;;16.70;67.70;;;;;;6269782;28;20037;-73
2023/10/16 12:44:27;;;;;;;1.40;1.05;;;17.00;68.10;;;;;;6254657;28;20055;-73
2023/10/16 12:47:28;;;;;;;1.00;0.90;;;17.50;67.80;;;;;;6236527;28;20042;-73
2023/10/16 12:50:30;;;;;;;0.88;0.80;;;17.80;64.90;;;;;;6249534;28;20060;-74
2023/10/16 12:53:33;;;;;;;1.88;0.60;;;17.50;63.40;;;;;;6243802;28;20053;-73
2023/10/16 12:56:36;;;;;;;0.75;0.70;;;17.10;62.80;;;;;;6244620;28;20136;-73
2023/10/16 12:59:37;;;;;;;2.33;1.02;;;16.90;62.40;;;;;;6244581;28;20051;-73
2023/10/16 13:02:42;;;;;;;1.17;1.00;;;16.60;61.60;;;;;;6244842;28;20510;-73
2023/10/16 13:05:44;;;;;;;1.27;0.52;;;16.50;61.30;;;;;;6245262;28;20041;-73
2023/10/16 13:08:47;;;;;;;2.15;0.90;;;16.30;61.20;;;;;;6249064;28;20057;-73
2023/10/16 13:11:49;;;;;;;0.73;0.68;;;16.20;60.80;;;;;;6265823;28;20049;-73
2023/10/16 13:14:53;;;;;;;0.50;0.50;;;16.20;60.90;;;;;;6249317;28;20466;-73
2023/10/16 13:17:55;;;;;;;1.40;0.85;;;16.20;60.40;;;;;;6253139;28;20546;-73
2023/10/16 13:21:04;;;;;;;1.75;0.65;;;16.10;60.60;;;;;;6248544;28;20037;-73
2023/10/16 13:24:11;;;;;;;1.17;0.90;;;16.00;60.30;;;;;;6249283;28;20049;-73
2023/10/16 13:27:16;;;;;;;0.90;0.70;;;15.90;60.20;;;;;;6248476;28;20526;-73
2023/10/16 13:30:18;;;;;;;1.55;1.23;;;15.80;60.40;;;;;;6248534;28;20037;-73
2023/10/16 13:33:20;;;;;;;1.17;0.70;;;15.70;60.20;;;;;;6258901;28;20040;-73
2023/10/16 13:36:22;;;;;;;5.78;1.23;;;15.70;60.10;;;;;;6272707;28;20044;-73
2023/10/16 13:39:25;;;;;;;0.90;0.90;;;15.60;60.50;;;;;;6267251;28;20048;-73
2023/10/16 13:42:28;;;;;;;0.73;0.73;;;15.80;60.30;;;;;;6261203;28;20052;-73
2023/10/16 13:45:30;;;;;;;1.95;1.40;;;15.80;60.30;;;;;;6272363;28;20570;-73
2023/10/16 13:48:31;;;;;;;1.70;1.40;;;15.90;60.10;;;;;;6239836;28;20051;-73
2023/10/16 13:51:35;;;;;;;0.80;0.80;;;15.90;59.90;;;;;;6251001;28;20052;-73
2023/10/16 13:54:40;;;;;;;0.80;0.80;;;15.90;59.90;;;;;;6248739;28;20531;-73
2023/10/16 13:57:43;;;;;;;1.60;0.98;;;15.80;60.10;;;;;;6268928;28;20072;-73
2023/10/16 14:00:47;;;;;;;3.25;1.30;;;15.90;60.10;;;;;;6272498;28;20119;-74
2023/10/16 14:03:49;;;;;;;1.40;0.93;;;15.80;60.10;;;;;;6270265;28;20060;-73
2023/10/16 14:06:52;;;;;;;4.22;1.50;;;16.00;60.50;;;;;;6272002;28;20048;-73
2023/10/16 14:09:56;;;;;;;1.23;1.13;;;16.10;59.90;;;;;;6269878;28;20040;-73
2023/10/16 14:13:00;;;;;;;1.08;1.02;;;16.00;59.80;;;;;;6268948;28;20049;-73
2023/10/16 14:16:09;;;;;;;1.00;0.95;;;15.90;60.00;;;;;;6273117;28;20055;-73
2023/10/16 14:19:12;;;;;;;1.70;1.45;;;15.90;60.50;;;;;;6265432;28;20053;-73
2023/10/16 14:22:15;;;;;;;1.20;1.05;;;15.80;60.40;;;;;;6246556;28;20045;-73
2023/10/16 14:25:18;;;;;;;3.28;1.27;;;15.60;60.80;;;;;;6247166;28;20042;-73
2023/10/16 14:28:32;;;;;;;1.55;1.45;;;15.50;61.30;;;;;;6247577;28;20050;-73
2023/10/16 14:31:36;;;;;;;1.10;1.00;;;15.50;61.50;;;;;;6246923;28;20038;-73
2023/10/16 14:34:38;;;;;;;1.20;1.10;;;15.40;61.40;;;;;;6270969;28;20044;-73
2023/10/16 14:37:41;;;;;;;1.80;1.67;;;15.30;62.10;;;;;;6271195;28;20064;-74
2023/10/16 14:40:45;;;;;;;2.35;1.55;;;15.30;62.60;;;;;;6272013;28;20127;-73
2023/10/16 14:43:46;;;;;;;1.77;1.52;;;15.20;62.60;;;;;;6271875;28;20053;-74
2023/10/16 14:46:48;;;;;;;3.90;1.20;;;15.20;63.20;;;;;;6265636;28;20041;-73
2023/10/16 14:49:50;;;;;;;3.03;1.52;;;15.20;63.20;;;;;;6261362;28;20080;-74
2023/10/16 14:52:51;;;;;;;1.52;1.42;;;15.10;63.50;;;;;;6246594;28;20045;-74
2023/10/16 14:55:54;;;;;;;2.38;1.35;;;14.90;63.60;;;;;;6249653;28;20063;-74
2023/10/16 14:58:56;;;;;;;1.85;1.45;;;14.80;63.90;;;;;;6246574;28;20049;-74
2023/10/16 15:02:00;;;;;;;5.20;1.30;;;14.60;64.00;;;;;;6247039;28;20041;-73
2023/10/16 15:05:02;;;;;;;1.77;1.25;;;14.50;64.60;;;;;;6246605;28;20056;-74
2023/10/16 15:08:04;;;;;;;1.65;1.13;;;14.40;64.70;;;;;;6247052;28;20045;-73
2023/10/16 15:11:10;;;;;;;1.05;1.05;;;14.20;65.00;;;;;;6246549;28;20526;-73
2023/10/16 15:14:13;;;;;;;2.00;1.40;;;14.00;65.30;;;;;;6247071;28;20049;-74
2023/10/16 15:17:14;;;;;;;2.60;1.63;;;13.90;65.50;;;;;;6246755;28;20524;-74
2023/10/16 15:20:16;;;;;;;2.72;1.08;;;13.70;65.70;;;;;;6246645;28;20049;-73
2023/10/16 15:23:18;;;;;;;1.95;1.50;;;13.50;65.90;;;;;;6246222;28;20577;-74
2023/10/16 15:26:23;;;;;;;5.05;1.40;;;13.30;66.00;;;;;;6245790;28;20041;-74
2023/10/16 15:29:26;;;;;;;1.38;1.27;;;13.20;66.40;;;;;;6245499;28;20046;-72
2023/10/16 15:32:27;;;;;;;0.95;0.95;;;13.00;66.50;;;;;;6246124;28;20141;-74
2023/10/16 15:35:29;;;;;;;4.63;2.05;;;12.90;66.70;;;;;;6246252;28;20049;-73
2023/10/16 15:38:31;;;;;;;3.05;2.47;;;12.80;66.80;;;;;;6245657;28;20046;-74
2023/10/16 15:41:34;;;;;;;1.55;1.35;;;12.70;67.10;;;;;;6251466;28;20506;-73
2023/10/16 15:44:36;;;;;;;1.73;1.50;;;12.50;67.30;;;;;;6245769;28;20418;-74
2023/10/16 15:47:41;;;;;;;2.53;2.33;;;12.50;68.10;;;;;;6245800;28;20447;-74
2023/10/16 15:50:44;;;;;;;3.45;1.65;;;12.40;67.80;;;;;;6245819;28;20122;-73
2023/10/16 15:53:50;;;;;;;3.38;1.67;;;12.30;67.90;;;;;;6246054;28;20041;-74
2023/10/16 15:56:53;;;;;;;3.35;1.75;;;12.30;68.10;;;;;;6245738;28;20041;-73
2023/10/16 15:59:55;;;;;;;3.28;2.95;;;12.20;68.40;;;;;;6249074;28;20049;-73
2023/10/16 16:02:58;;;;;;;3.70;3.40;;;12.10;68.60;;;;;;6245191;28;20045;-74
2023/10/16 16:06:00;;;;;;;23.25;14.95;;;12.00;68.90;;;;;;6244249;28;20041;-74
2023/10/16 16:09:02;;;;;;;48.42;37.95;;;11.90;69.10;;;;;;6245818;28;20201;-74
2023/10/16 16:12:08;;;;;;;9.30;6.75;;;11.80;69.40;;;;;;6245161;28;20408;-74
2023/10/16 16:15:11;;;;;;;4.53;4.18;;;11.80;69.80;;;;;;6244726;28;20076;-73
2023/10/16 16:18:13;;;;;;;3.53;3.33;;;11.70;70.00;;;;;;6245389;28;20041;-73
2023/10/16 16:21:16;;;;;;;4.22;2.78;;;11.60;70.20;;;;;;6245441;28;20041;-73
2023/10/16 16:24:18;;;;;;;1.90;1.80;;;11.60;70.50;;;;;;6245691;28;20048;-73
2023/10/16 16:27:22;;;;;;;2.67;2.00;;;11.50;70.70;;;;;;6253731;28;20187;-74
2023/10/16 16:30:25;;;;;;;6.97;5.75;;;11.40;71.00;;;;;;6267978;28;20044;-73
2023/10/16 16:33:27;;;;;;;2.22;2.03;;;11.40;71.20;;;;;;6270273;28;20068;-73
2023/10/16 16:36:29;;;;;;;2.38;2.17;;;11.30;71.60;;;;;;6254572;28;20046;-74
2023/10/16 16:39:33;;;;;;;1.70;1.60;;;11.30;72.00;;;;;;6245939;28;20056;-73
2023/10/16 16:42:36;;;;;;;2.50;1.80;;;11.20;72.20;;;;;;6256721;28;20037;-73
2023/10/16 16:45:38;;;;;;;4.70;1.75;;;11.20;72.20;;;;;;6266357;28;20090;-73
2023/10/16 16:48:41;;;;;;;3.42;1.40;;;11.10;72.60;;;;;;6274547;28;20045;-74
2023/10/16 16:51:43;;;;;;;2.35;2.15;;;11.00;72.80;;;;;;6252000;28;20041;-78
2023/10/16 16:54:49;;;;;;;1.77;1.67;;;10.90;73.10;;;;;;6268080;28;20049;-73
2023/10/16 16:57:52;;;;;;;2.38;1.80;;;10.90;73.50;;;;;;6274009;28;20048;-74
2023/10/16 17:00:54;;;;;;;6.57;2.35;;;10.80;73.70;;;;;;6247461;28;20049;-74
2023/10/16 17:03:56;;;;;;;3.17;1.92;;;10.80;74.00;;;;;;6249674;28;20056;-74
2023/10/16 17:07:00;;;;;;;2.47;2.28;;;10.70;74.30;;;;;;6248287;28;20478;-74
2023/10/16 17:10:02;;;;;;;3.85;1.67;;;10.70;74.60;;;;;;6249240;28;20049;-74
2023/10/16 17:13:06;;;;;;;3.03;1.70;;;10.60;74.90;;;;;;6249404;28;20045;-73
2023/10/16 17:16:08;;;;;;;3.72;1.92;;;10.60;75.20;;;;;;6248943;28;20422;-73
2023/10/16 17:19:12;;;;;;;3.53;2.28;;;10.50;75.40;;;;;;6249082;28;20037;-74